Murrurundi, Australia
Current Conditions -  °F | °C
As of 5:00 AM on Monday 26 Jan 2015 (Local Time) from YSTW Reporting Station
Clear Clear  
Wind Chill: 70°   Ceiling: Unl
Heat Index: 70°   Visibility: 6mi
Dew Point: 63°   Wind: 8mph
Humidity: 78%   Direction: 140°SE
Pressure: 29.74"   Gusts: NA
Location:  31.76°S, 150.83°E
Report Text: YSTW 251800Z AUTO 14007KT 9999 // NCD 21/17 Q1007
Loading
Personal Weather Stations






























Interactive Weather Map New forecast layout! Learn more

10-Day Weather Forecast

Advertisements
Track Severe Weather on mobile